createdAt,value
2022-12-22T00:01:54.242Z,97560.66
2022-12-22T00:04:40.550Z,97560.53
2022-12-22T00:07:25.655Z,97563.03
2022-12-22T00:10:11.632Z,97553.47
2022-12-22T00:12:57.685Z,97562.94
2022-12-22T00:15:43.089Z,97568.81
2022-12-22T00:18:34.102Z,97572.63
2022-12-22T00:21:20.044Z,97548.78
2022-12-22T00:24:05.234Z,97574.16
2022-12-22T00:26:52.930Z,97574.53
2022-12-22T00:29:38.850Z,97575.38
2022-12-22T00:32:24.580Z,97567.28
2022-12-22T00:35:10.578Z,97554.44
2022-12-22T00:37:56.441Z,97575.97
2022-12-22T00:40:45.220Z,97576.38
2022-12-22T00:43:31.088Z,97572.16
2022-12-22T00:46:18.712Z,97571.44
2022-12-22T00:49:04.547Z,97561.97
2022-12-22T00:51:51.026Z,97566.19
2022-12-22T00:54:38.835Z,97571.31
2022-12-22T00:57:24.406Z,97571.44
2022-12-22T01:00:10.984Z,97564.34
2022-12-22T01:02:56.200Z,97559.25
2022-12-22T01:05:41.302Z,97561.53
2022-12-22T01:08:29.686Z,97562.34
2022-12-22T01:11:15.052Z,97559.25
2022-12-22T01:13:59.832Z,97566.66
2022-12-22T01:16:44.972Z,97555.66
2022-12-22T01:19:29.929Z,97559.69
2022-12-22T01:22:15.652Z,97552.63
2022-12-22T01:25:04.409Z,97548.69
2022-12-22T01:27:49.224Z,97545.41
2022-12-22T01:30:34.561Z,97551.69
2022-12-22T01:33:19.719Z,97534.91
2022-12-22T01:36:04.851Z,97564.09
2022-12-22T01:38:49.678Z,97561.81
2022-12-22T01:41:38.706Z,97557.91
2022-12-22T01:44:32.523Z,97546.38
2022-12-22T01:47:48.654Z,97554.03
2022-12-22T01:50:34.536Z,97556.22
2022-12-22T01:53:21.467Z,97553.91
2022-12-22T01:56:06.513Z,97548.16
2022-12-22T01:59:01.013Z,97547.28
2022-12-22T02:01:48.446Z,97543.88
2022-12-22T02:04:35.249Z,97540.94
2022-12-22T02:07:26.897Z,97547.13
2022-12-22T02:10:15.370Z,97536.47
2022-12-22T02:13:03.482Z,97539.19
2022-12-22T02:15:52.873Z,97539.97
2022-12-22T02:18:53.825Z,97538.59
2022-12-22T02:21:43.831Z,97530.16
2022-12-22T02:24:45.523Z,97531.06
2022-12-22T02:27:31.474Z,97536.28
2022-12-22T02:30:21.694Z,97534.38
2022-12-22T02:33:10.092Z,97535.91
2022-12-22T02:36:15.785Z,97531.19
2022-12-22T02:39:06.989Z,97538.28
2022-12-22T02:42:21.097Z,97506.94
2022-12-22T02:45:39.826Z,97540.69
2022-12-22T02:48:34.757Z,97542.50
2022-12-22T02:51:25.799Z,97524.19
2022-12-22T02:54:12.718Z,97537.66
2022-12-22T02:56:59.370Z,97520.03
2022-12-22T02:59:44.726Z,97536.31
2022-12-22T03:02:32.091Z,97538.19
2022-12-22T03:05:17.371Z,97535.06
2022-12-22T03:08:08.046Z,97536.03
2022-12-22T03:10:53.969Z,97517.03
2022-12-22T03:13:38.787Z,97541.53
2022-12-22T03:16:24.372Z,97535.28
2022-12-22T03:19:09.399Z,97538.25
2022-12-22T03:21:54.573Z,97533.19
2022-12-22T03:24:39.447Z,97535.56
2022-12-22T03:27:06.033Z,97533.25
2022-12-22T03:29:32.608Z,97533.06
2022-12-22T03:31:59.285Z,97536.28
2022-12-22T03:34:25.949Z,97537.09
2022-12-22T03:36:52.623Z,97533.19
2022-12-22T03:39:19.176Z,97530.00
2022-12-22T03:42:04.410Z,97530.78
2022-12-22T03:44:49.426Z,97527.47
2022-12-22T03:47:16.043Z,97532.03
2022-12-22T03:49:42.640Z,97519.13
2022-12-22T03:52:09.209Z,97517.28
2022-12-22T03:54:35.807Z,97522.72
2022-12-22T03:57:02.352Z,97528.22
2022-12-22T03:59:28.923Z,97523.00
2022-12-22T04:01:55.694Z,97528.91
2022-12-22T04:04:24.795Z,97527.03
2022-12-22T04:06:52.392Z,97525.31
2022-12-22T04:09:19.047Z,97523.88
2022-12-22T04:12:04.485Z,97525.47
2022-12-22T04:14:34.181Z,97525.47
2022-12-22T04:17:05.206Z,97522.72
2022-12-22T04:19:31.910Z,97531.09
2022-12-22T04:21:58.941Z,97528.13
2022-12-22T04:24:25.539Z,97530.81
2022-12-22T04:26:52.191Z,97532.09
2022-12-22T04:29:18.748Z,97532.97
2022-12-22T04:31:45.427Z,97523.44
2022-12-22T04:34:12.019Z,97534.84
2022-12-22T04:36:38.649Z,97534.84
2022-12-22T04:39:05.231Z,97539.63
2022-12-22T04:41:31.825Z,97538.47
2022-12-22T04:43:58.398Z,97534.47
2022-12-22T04:46:25.055Z,97529.06
2022-12-22T04:48:56.187Z,97531.81
2022-12-22T04:51:26.167Z,97539.06
2022-12-22T04:53:52.831Z,97542.50
2022-12-22T04:56:19.362Z,97530.81
2022-12-22T04:58:45.913Z,97523.97
2022-12-22T05:01:15.216Z,97537.44
2022-12-22T05:03:42.326Z,97532.75
2022-12-22T05:06:09.001Z,97528.78
2022-12-22T05:08:35.927Z,97529.66
2022-12-22T05:11:03.080Z,97529.28
2022-12-22T05:13:30.713Z,97531.25
2022-12-22T05:16:07.123Z,97531.63
2022-12-22T05:18:35.061Z,97524.88
2022-12-22T05:21:07.588Z,97519.41
2022-12-22T05:23:34.148Z,97525.53
2022-12-22T05:26:00.776Z,97529.88
2022-12-22T05:28:27.306Z,97498.50
2022-12-22T05:30:54.974Z,97533.72
2022-12-22T05:33:21.719Z,97530.22
2022-12-22T05:35:48.291Z,97537.16
2022-12-22T05:38:14.868Z,97543.25
2022-12-22T05:40:41.389Z,97542.22
2022-12-22T05:43:07.953Z,97545.38
2022-12-22T05:45:34.608Z,97542.94
2022-12-22T05:48:01.178Z,97548.63
2022-12-22T05:50:28.014Z,97542.72
2022-12-22T05:52:54.988Z,97540.81
2022-12-22T05:55:21.573Z,97538.16
2022-12-22T05:57:48.272Z,97545.31
2022-12-22T06:00:16.646Z,97540.38
2022-12-22T06:02:44.302Z,97544.06
2022-12-22T06:05:13.478Z,97513.28
2022-12-22T06:07:40.151Z,97543.22
2022-12-22T06:10:12.714Z,97543.72
2022-12-22T06:12:40.396Z,97538.31
2022-12-22T06:15:08.283Z,97519.53
2022-12-22T06:17:39.111Z,97546.25
2022-12-22T06:20:09.241Z,97538.41
2022-12-22T06:22:35.880Z,97533.84
2022-12-22T06:25:02.608Z,97541.00
2022-12-22T06:27:29.210Z,97546.16
2022-12-22T06:29:55.792Z,97537.31
2022-12-22T06:32:22.326Z,97541.66
2022-12-22T06:34:48.930Z,97541.53
2022-12-22T06:37:15.485Z,97540.34
2022-12-22T06:39:42.003Z,97535.03
2022-12-22T06:42:28.860Z,97541.97
2022-12-22T06:44:55.582Z,97545.56
2022-12-22T06:47:22.731Z,97542.09
2022-12-22T06:49:49.759Z,97540.94
2022-12-22T06:52:16.322Z,97549.41
2022-12-22T06:54:42.919Z,97545.63
2022-12-22T06:57:09.529Z,97551.53
2022-12-22T06:59:36.181Z,97555.47
2022-12-22T07:02:03.498Z,97529.78
2022-12-22T07:04:30.922Z,97554.56
2022-12-22T07:06:57.579Z,97569.59
2022-12-22T07:09:24.274Z,97551.50
2022-12-22T07:11:50.946Z,97562.63
2022-12-22T07:14:17.511Z,97553.34
2022-12-22T07:16:44.220Z,97557.00
2022-12-22T07:19:10.897Z,97557.50
2022-12-22T07:21:37.505Z,97555.16
2022-12-22T07:24:04.374Z,97565.88
2022-12-22T07:26:31.420Z,97537.94
2022-12-22T07:28:57.996Z,97550.25
2022-12-22T07:31:24.718Z,97557.78
2022-12-22T07:33:52.071Z,97549.03
2022-12-22T07:36:20.295Z,97555.28
2022-12-22T07:38:49.428Z,97558.34
2022-12-22T07:41:36.346Z,97553.69
2022-12-22T07:44:03.657Z,97555.63
2022-12-22T07:46:33.798Z,97547.03
2022-12-22T07:49:18.859Z,97529.75
2022-12-22T07:51:45.591Z,97551.34
2022-12-22T07:54:14.615Z,97552.25
2022-12-22T07:56:42.065Z,97548.41
2022-12-22T07:59:09.708Z,97523.03
2022-12-22T08:01:36.441Z,97550.94
2022-12-22T08:04:03.202Z,97548.66
2022-12-22T08:06:29.764Z,97539.31
2022-12-22T08:08:56.250Z,97539.72
2022-12-22T08:11:22.781Z,97541.00
2022-12-22T08:13:50.021Z,97539.56
2022-12-22T08:16:16.543Z,97536.50
2022-12-22T08:18:43.275Z,97540.53
2022-12-22T08:21:10.469Z,97544.47
2022-12-22T08:23:36.994Z,97542.88
2022-12-22T08:26:27.080Z,97540.47
2022-12-22T08:29:01.938Z,97545.41
2022-12-22T08:31:29.563Z,97541.84
2022-12-22T08:33:59.818Z,97534.81
2022-12-22T08:36:26.930Z,97535.41
2022-12-22T08:38:53.620Z,97543.34
2022-12-22T08:41:40.183Z,97533.97
2022-12-22T08:44:06.702Z,97529.69
2022-12-22T08:46:33.349Z,97523.38
2022-12-22T08:48:59.984Z,97517.94
2022-12-22T08:51:26.768Z,97519.97
2022-12-22T08:54:08.923Z,97511.00
2022-12-22T08:56:35.887Z,97505.56
2022-12-22T08:59:05.347Z,97510.09
2022-12-22T09:01:33.323Z,97498.41
2022-12-22T09:04:00.125Z,97470.03
2022-12-22T09:06:28.434Z,97450.63
2022-12-22T09:08:57.809Z,97435.69
2022-12-22T09:11:24.838Z,97457.91
2022-12-22T09:13:53.234Z,97471.41
2022-12-22T09:16:21.227Z,97450.50
2022-12-22T09:18:47.847Z,97465.00
2022-12-22T09:21:14.679Z,97459.47
2022-12-22T09:23:41.368Z,97454.22
2022-12-22T09:26:10.429Z,97452.94
2022-12-22T09:28:37.286Z,97442.00
2022-12-22T09:31:04.541Z,97449.28
2022-12-22T09:33:32.090Z,97444.84
2022-12-22T09:35:58.657Z,97445.34
2022-12-22T09:38:29.014Z,97447.63
2022-12-22T09:40:58.448Z,97444.47
2022-12-22T09:43:30.243Z,97448.69
2022-12-22T09:45:58.583Z,97440.88
2022-12-22T09:48:34.361Z,97432.06
2022-12-22T09:51:02.459Z,97427.25
2022-12-22T09:53:29.081Z,97428.97
2022-12-22T09:55:55.705Z,97417.78
2022-12-22T09:58:29.287Z,97426.66
2022-12-22T10:01:20.522Z,97409.75
2022-12-22T10:04:25.256Z,97412.72
2022-12-22T10:07:02.319Z,97398.28
2022-12-22T10:12:21.624Z,97389.84
2022-12-22T10:14:50.004Z,97382.38
2022-12-22T10:17:29.130Z,97374.88
2022-12-22T10:20:17.284Z,97369.25
2022-12-22T10:23:14.058Z,97354.78
2022-12-22T10:26:26.137Z,97344.38
2022-12-22T10:28:43.809Z,97356.84
2022-12-22T10:31:12.122Z,97343.78
2022-12-22T10:33:45.838Z,97344.56
2022-12-22T10:36:15.563Z,97346.16
2022-12-22T10:38:59.556Z,97337.25
2022-12-22T10:41:30.718Z,97336.38
2022-12-22T10:43:58.476Z,97323.78
2022-12-22T10:46:41.215Z,97330.38
2022-12-22T10:49:23.994Z,97323.66
2022-12-22T10:51:57.188Z,97323.28
2022-12-22T10:54:30.196Z,97323.09
2022-12-22T10:57:06.962Z,97310.50
2022-12-22T10:59:46.430Z,97314.50
2022-12-22T11:02:22.856Z,97309.22
2022-12-22T11:04:51.355Z,97309.50
2022-12-22T11:07:18.952Z,97303.97
2022-12-22T11:09:45.838Z,97307.63
2022-12-22T11:12:43.360Z,97300.94
2022-12-22T11:15:31.809Z,97301.38
2022-12-22T11:18:05.919Z,97295.72
2022-12-22T11:20:32.407Z,97304.03
2022-12-22T11:23:04.585Z,97292.59
2022-12-22T11:25:56.582Z,97278.16
2022-12-22T11:28:36.949Z,97276.94
2022-12-22T11:31:11.435Z,97278.41
2022-12-22T11:33:43.820Z,97267.69
2022-12-22T11:36:36.853Z,97263.66
2022-12-22T11:39:15.996Z,97258.41
2022-12-22T11:41:57.522Z,97254.47
2022-12-22T11:44:45.721Z,97250.97
2022-12-22T11:47:25.733Z,97245.84
2022-12-22T11:50:58.200Z,97243.81
2022-12-22T11:53:26.800Z,97240.84
2022-12-22T11:56:12.038Z,97238.91
2022-12-22T11:58:43.503Z,97229.75
2022-12-22T12:01:47.682Z,97233.13
2022-12-22T12:04:35.801Z,97229.47
2022-12-22T12:07:25.360Z,97222.09
2022-12-22T12:10:17.511Z,97216.84
2022-12-22T12:12:50.758Z,97219.66
2022-12-22T12:15:25.946Z,97221.91
2022-12-22T12:18:15.769Z,97210.28
2022-12-22T12:20:48.166Z,97213.06
2022-12-22T12:23:20.696Z,97210.81
2022-12-22T12:25:59.181Z,97209.03
2022-12-22T12:28:53.277Z,97205.13
2022-12-22T12:31:26.585Z,97194.81
2022-12-22T12:33:59.225Z,97179.03
2022-12-22T12:36:28.505Z,97193.91
2022-12-22T12:39:19.155Z,97188.09
2022-12-22T12:42:07.129Z,97194.16
2022-12-22T12:44:37.261Z,97182.94
2022-12-22T12:47:08.163Z,97187.97
2022-12-22T12:49:34.738Z,97182.94
2022-12-22T12:52:08.860Z,97181.38
2022-12-22T12:54:47.290Z,97185.63
2022-12-22T12:57:26.621Z,97178.34
2022-12-22T12:59:58.695Z,97167.59
2022-12-22T13:02:28.498Z,97177.34
2022-12-22T13:05:27.044Z,97172.63
2022-12-22T13:08:15.401Z,97176.22
2022-12-22T13:11:08.573Z,97169.06
2022-12-22T13:13:35.157Z,97167.38
2022-12-22T13:16:01.898Z,97167.28
2022-12-22T13:18:34.566Z,97162.56
2022-12-22T13:21:26.199Z,97160.44
2022-12-22T13:24:27.636Z,97158.31
2022-12-22T13:27:01.738Z,97152.25
2022-12-22T13:29:42.014Z,97150.03
2022-12-22T13:32:21.151Z,97152.03
2022-12-22T13:37:50.240Z,97155.81
2022-12-22T13:40:28.435Z,97137.56
2022-12-22T13:43:05.257Z,97161.72
2022-12-22T13:45:40.082Z,97158.00
2022-12-22T13:48:30.475Z,97154.59
2022-12-22T13:51:01.327Z,97162.84
2022-12-22T13:56:46.537Z,97156.94
2022-12-22T13:59:28.820Z,97147.03
2022-12-22T14:02:12.665Z,97148.28
2022-12-22T14:04:43.142Z,97161.56
2022-12-22T14:07:19.034Z,97167.63
2022-12-22T14:09:50.692Z,97154.78
2022-12-22T14:12:23.824Z,97160.88
2022-12-22T14:14:52.455Z,97163.38
2022-12-22T14:17:36.513Z,97159.91
2022-12-22T14:20:21.792Z,97172.41
2022-12-22T14:23:19.965Z,97158.03
2022-12-22T14:25:48.004Z,97156.78
2022-12-22T14:28:25.858Z,97167.69
2022-12-22T14:30:56.062Z,97164.31
2022-12-22T14:33:29.989Z,97159.19
2022-12-22T14:36:20.879Z,97165.91
2022-12-22T14:39:02.523Z,97165.91
2022-12-22T14:41:51.427Z,97164.44
2022-12-22T14:44:43.654Z,97157.56
2022-12-22T14:47:17.299Z,97152.09
2022-12-22T14:49:46.531Z,97159.31
2022-12-22T14:52:22.223Z,97158.59
2022-12-22T14:54:51.745Z,97172.03
2022-12-22T14:57:28.838Z,97161.66
2022-12-22T15:00:05.962Z,97168.78
2022-12-22T15:02:40.638Z,97169.28
2022-12-22T15:05:10.045Z,97152.06
2022-12-22T15:10:39.465Z,97169.81
2022-12-22T15:13:13.187Z,97169.44
2022-12-22T15:15:39.942Z,97167.34
2022-12-22T15:18:06.576Z,97171.41
2022-12-22T15:20:38.992Z,97177.81
2022-12-22T15:23:16.735Z,97177.84
2022-12-22T15:25:43.387Z,97179.47
2022-12-22T15:28:10.175Z,97173.34
2022-12-22T15:30:38.419Z,97171.91
2022-12-22T15:33:13.691Z,97181.56
2022-12-22T15:35:40.351Z,97182.53
2022-12-22T15:38:17.324Z,97182.59
2022-12-22T15:40:43.965Z,97168.41
2022-12-22T15:43:28.897Z,97188.38
2022-12-22T15:45:58.244Z,97186.97
2022-12-22T15:48:31.319Z,97195.88
2022-12-22T15:50:59.016Z,97192.41
2022-12-22T15:53:25.857Z,97192.91
2022-12-22T15:55:54.937Z,97191.41
2022-12-22T15:58:26.080Z,97202.53
2022-12-22T16:00:53.174Z,97195.47
2022-12-22T16:03:19.955Z,97196.31
2022-12-22T16:05:46.932Z,97187.59
2022-12-22T16:08:20.419Z,97193.03
2022-12-22T16:10:47.493Z,97194.56
2022-12-22T16:13:16.172Z,97206.44
2022-12-22T16:15:43.006Z,97180.34
2022-12-22T16:18:13.007Z,97205.25
2022-12-22T16:20:43.038Z,97207.66
2022-12-22T16:23:18.873Z,97212.09
2022-12-22T16:25:46.650Z,97197.13
2022-12-22T16:28:17.575Z,97198.75
2022-12-22T16:30:45.031Z,97227.22
2022-12-22T16:33:12.861Z,97220.03
2022-12-22T16:35:39.867Z,97220.03
2022-12-22T16:38:06.854Z,97207.81
2022-12-22T16:40:39.919Z,97205.06
2022-12-22T16:43:48.913Z,97231.16
2022-12-22T16:46:18.791Z,97227.19
2022-12-22T16:48:56.974Z,97227.97
2022-12-22T16:51:28.107Z,97225.63
2022-12-22T16:53:54.966Z,97232.69
2022-12-22T16:56:24.881Z,97231.13
2022-12-22T16:58:51.479Z,97235.84
2022-12-22T17:01:27.278Z,97225.63
2022-12-22T17:03:54.613Z,97232.75
2022-12-22T17:06:21.263Z,97224.06
2022-12-22T17:08:48.479Z,97233.13
2022-12-22T17:11:25.310Z,97237.53
2022-12-22T17:13:53.884Z,97225.31
2022-12-22T17:16:22.661Z,97232.88
2022-12-22T17:18:49.694Z,97229.72
2022-12-22T17:21:20.876Z,97227.38
2022-12-22T17:23:50.859Z,97228.16
2022-12-22T17:26:21.272Z,97236.88
2022-12-22T17:28:49.990Z,97230.56
2022-12-22T17:31:18.795Z,97232.94
2022-12-22T17:33:46.118Z,97230.56
2022-12-22T17:36:18.631Z,97218.69
2022-12-22T17:38:45.721Z,97228.97
2022-12-22T17:41:14.588Z,97238.44
2022-12-22T17:43:41.355Z,97232.13
2022-12-22T17:46:19.961Z,97234.50
2022-12-22T17:48:47.455Z,97233.72
2022-12-22T17:51:20.910Z,97237.66
2022-12-22T17:53:47.814Z,97241.59
2022-12-22T17:56:19.216Z,97245.97
2022-12-22T17:58:46.099Z,97237.66
2022-12-22T18:01:21.844Z,97245.56
2022-12-22T18:03:48.730Z,97241.59
2022-12-22T18:06:18.251Z,97253.84
2022-12-22T18:08:45.390Z,97263.34
2022-12-22T18:11:12.725Z,97251.09
2022-12-22T18:13:39.807Z,97256.63
2022-12-22T18:16:07.583Z,97257.41
2022-12-22T18:18:34.359Z,97259.41
2022-12-22T18:21:07.401Z,97256.63
2022-12-22T18:23:36.558Z,97257.00
2022-12-22T18:26:05.929Z,97257.00
2022-12-22T18:28:32.555Z,97243.94
2022-12-22T18:30:59.421Z,97254.19
2022-12-22T18:33:26.220Z,97255.75
2022-12-22T18:35:53.400Z,97260.50
2022-12-22T18:38:46.748Z,97262.44
2022-12-22T18:41:22.819Z,97261.22
2022-12-22T18:43:49.999Z,97258.44
2022-12-22T18:46:16.810Z,97265.16
2022-12-22T18:48:43.902Z,97261.97
2022-12-22T18:51:21.096Z,97266.72
2022-12-22T18:53:51.852Z,97238.97
2022-12-22T18:56:19.108Z,97261.50
2022-12-22T18:58:46.338Z,97266.22
2022-12-22T19:01:19.963Z,97266.25
2022-12-22T19:03:48.145Z,97258.75
2022-12-22T19:06:17.610Z,97244.50
2022-12-22T19:08:46.080Z,97271.34
2022-12-22T19:11:14.921Z,97271.31
2022-12-22T19:13:46.058Z,97267.78
2022-12-22T19:16:24.189Z,97277.66
2022-12-22T19:18:50.833Z,97270.97
2022-12-22T19:21:18.716Z,97272.16
2022-12-22T19:23:45.807Z,97274.13
2022-12-22T19:26:22.791Z,97274.53
2022-12-22T19:29:01.299Z,97267.44
2022-12-22T19:31:33.460Z,97265.81
2022-12-22T19:34:04.310Z,97266.56
2022-12-22T19:36:31.782Z,97264.94
2022-12-22T19:39:04.343Z,97269.66
2022-12-22T19:41:45.312Z,97268.06
2022-12-22T19:44:24.989Z,97270.41
2022-12-22T19:46:53.439Z,97244.31
2022-12-22T19:49:22.969Z,97273.97
2022-12-22T19:51:49.905Z,97271.63
2022-12-22T19:54:19.699Z,97267.25
2022-12-22T19:56:49.852Z,97275.94
2022-12-22T19:59:39.178Z,97287.03
2022-12-22T20:02:21.532Z,97287.38
2022-12-22T20:04:49.454Z,97281.47
2022-12-22T20:07:18.152Z,97292.06
2022-12-22T20:09:45.207Z,97291.69
2022-12-22T20:12:36.090Z,97284.97
2022-12-22T20:15:33.813Z,97299.59
2022-12-22T20:18:01.841Z,97300.00
2022-12-22T20:20:34.771Z,97295.66
2022-12-22T20:23:13.540Z,97300.81
2022-12-22T20:25:43.491Z,97299.63
2022-12-22T20:28:14.361Z,97301.16
2022-12-22T20:30:41.208Z,97290.94
2022-12-22T20:33:07.939Z,97282.19
2022-12-22T20:35:37.028Z,97301.97
2022-12-22T20:38:13.623Z,97281.38
2022-12-22T20:40:40.200Z,97303.44
2022-12-22T20:43:15.944Z,97302.63
2022-12-22T20:45:44.448Z,97308.16
2022-12-22T20:48:35.231Z,97299.47
2022-12-22T20:51:03.083Z,97305.38
2022-12-22T20:53:29.878Z,97302.56
2022-12-22T20:55:57.072Z,97275.72
2022-12-22T20:58:24.884Z,97309.69
2022-12-22T21:00:54.953Z,97280.38
2022-12-22T21:03:21.762Z,97303.38
2022-12-22T21:05:49.307Z,97302.56
2022-12-22T21:08:21.753Z,97300.19
2022-12-22T21:10:49.306Z,97297.88
2022-12-22T21:13:17.038Z,97306.94
2022-12-22T21:15:45.803Z,97301.84
2022-12-22T21:18:18.098Z,97305.47
2022-12-22T21:20:45.118Z,97312.13
2022-12-22T21:23:14.168Z,97308.97
2022-12-22T21:25:46.788Z,97314.53
2022-12-22T21:28:26.749Z,97317.28
2022-12-22T21:30:53.447Z,97293.50
2022-12-22T21:33:20.085Z,97314.38
2022-12-22T21:35:46.762Z,97312.38
2022-12-22T21:38:22.147Z,97311.19
2022-12-22T21:40:48.860Z,97307.28
2022-12-22T21:43:16.296Z,97291.38
2022-12-22T21:45:44.612Z,97306.38
2022-12-22T21:48:13.410Z,97306.41
2022-12-22T21:50:40.634Z,97312.72
2022-12-22T21:53:07.331Z,97308.81
2022-12-22T21:55:36.475Z,97306.53
2022-12-22T21:58:04.382Z,97307.28
2022-12-22T22:00:32.797Z,97301.84
2022-12-22T22:03:01.948Z,97289.25
2022-12-22T22:05:36.508Z,97302.72
2022-12-22T22:08:06.174Z,97300.75
2022-12-22T22:10:35.954Z,97303.50
2022-12-22T22:13:03.304Z,97299.59
2022-12-22T22:15:30.708Z,97297.66
2022-12-22T22:18:03.009Z,97292.53
2022-12-22T22:20:33.411Z,97292.59
2022-12-22T22:23:00.189Z,97293.31
2022-12-22T22:25:26.863Z,97288.56
2022-12-22T22:27:53.747Z,97286.91
2022-12-22T22:30:25.342Z,97290.81
2022-12-22T22:32:52.802Z,97284.81
2022-12-22T22:35:19.931Z,97287.56
2022-12-22T22:37:50.776Z,97291.09
2022-12-22T22:40:20.032Z,97280.44
2022-12-22T22:42:46.721Z,97285.09
2022-12-22T22:45:16.150Z,97289.81
2022-12-22T22:47:42.731Z,97285.13
2022-12-22T22:50:09.626Z,97282.00
2022-12-22T22:52:36.751Z,97288.38
2022-12-22T22:55:03.792Z,97272.63
2022-12-22T22:57:30.427Z,97263.97
2022-12-22T22:59:56.946Z,97275.06
2022-12-22T23:02:24.083Z,97255.28
2022-12-22T23:04:50.727Z,97281.41
2022-12-22T23:07:17.256Z,97266.78
2022-12-22T23:09:43.772Z,97272.34
2022-12-22T23:12:10.378Z,97264.09
2022-12-22T23:14:37.006Z,97263.75
2022-12-22T23:17:03.647Z,97263.34
2022-12-22T23:19:30.167Z,97257.84
2022-12-22T23:21:57.099Z,97255.50
2022-12-22T23:24:23.708Z,97251.16
2022-12-22T23:26:50.302Z,97248.81
2022-12-22T23:29:16.900Z,97242.94
2022-12-22T23:31:43.695Z,97236.63
2022-12-22T23:34:11.785Z,97251.56
2022-12-22T23:36:38.398Z,97242.09
2022-12-22T23:39:05.035Z,97229.47
2022-12-22T23:41:31.758Z,97239.69
2022-12-22T23:43:58.411Z,97240.06
2022-12-22T23:46:25.038Z,97238.88
2022-12-22T23:48:57.429Z,97243.59
2022-12-22T23:51:27.623Z,97242.78
2022-12-22T23:53:55.565Z,97241.16
2022-12-22T23:56:22.512Z,97239.53
2022-12-22T23:58:54.481Z,97227.31
